sensor_id;sensor_type;location;lat;lon;timestamp;pressure;altitude;pressure_sealevel;temperature;humidity
11487;BME280;10510;47.942;9.442;2023-08-06T00:00:48;94050.97;;;13.22;100.00
11487;BME280;10510;47.942;9.442;2023-08-06T00:02:49;94049.72;;;13.25;100.00
11487;BME280;10510;47.942;9.442;2023-08-06T00:04:50;94043.69;;;13.24;100.00
11487;BME280;10510;47.942;9.442;2023-08-06T00:06:50;94044.50;;;13.25;100.00
11487;BME280;10510;47.942;9.442;2023-08-06T00:08:50;94033.19;;;13.24;100.00
11487;BME280;10510;47.942;9.442;2023-08-06T00:10:50;94049.72;;;13.25;100.00
11487;BME280;10510;47.942;9.442;2023-08-06T00:12:51;94036.03;;;13.23;100.00
11487;BME280;10510;47.942;9.442;2023-08-06T00:14:52;94035.22;;;13.22;100.00
11487;BME280;10510;47.942;9.442;2023-08-06T00:16:52;94027.53;;;13.21;100.00
11487;BME280;10510;47.942;9.442;2023-08-06T00:18:53;94024.78;;;13.15;100.00
11487;BME280;10510;47.942;9.442;2023-08-06T00:20:53;94018.34;;;13.11;100.00
11487;BME280;10510;47.942;9.442;2023-08-06T00:22:54;94022.41;;;13.07;100.00
11487;BME280;10510;47.942;9.442;2023-08-06T00:24:54;94016.00;;;13.03;100.00
11487;BME280;10510;47.942;9.442;2023-08-06T00:26:57;94018.44;;;12.98;100.00
11487;BME280;10510;47.942;9.442;2023-08-06T00:28:57;94012.44;;;12.91;100.00
11487;BME280;10510;47.942;9.442;2023-08-06T00:30:58;94013.88;;;12.87;100.00
11487;BME280;10510;47.942;9.442;2023-08-06T00:32:58;94010.88;;;12.83;100.00
11487;BME280;10510;47.942;9.442;2023-08-06T00:34:58;94000.22;;;12.78;100.00
11487;BME280;10510;47.942;9.442;2023-08-06T00:36:58;94004.06;;;12.76;100.00
11487;BME280;10510;47.942;9.442;2023-08-06T00:38:59;94000.03;;;12.73;100.00
11487;BME280;10510;47.942;9.442;2023-08-06T00:40:59;93984.53;;;12.71;100.00
11487;BME280;10510;47.942;9.442;2023-08-06T00:42:59;93992.84;;;12.68;100.00
11487;BME280;10510;47.942;9.442;2023-08-06T00:45:00;93989.00;;;12.64;100.00
11487;BME280;10510;47.942;9.442;2023-08-06T00:47:01;93974.72;;;12.60;100.00
11487;BME280;10510;47.942;9.442;2023-08-06T00:49:01;93976.19;;;12.56;100.00
11487;BME280;10510;47.942;9.442;2023-08-06T00:51:02;93980.22;;;12.52;100.00
11487;BME280;10510;47.942;9.442;2023-08-06T00:53:02;93980.88;;;12.47;100.00
11487;BME280;10510;47.942;9.442;2023-08-06T00:55:04;93988.13;;;12.45;100.00
11487;BME280;10510;47.942;9.442;2023-08-06T00:57:07;93990.94;;;12.44;100.00
11487;BME280;10510;47.942;9.442;2023-08-06T00:59:07;93982.69;;;12.40;100.00
11487;BME280;10510;47.942;9.442;2023-08-06T01:01:09;93991.78;;;12.38;100.00
11487;BME280;10510;47.942;9.442;2023-08-06T01:03:10;93989.81;;;12.33;100.00
11487;BME280;10510;47.942;9.442;2023-08-06T01:05:10;93981.16;;;12.33;100.00
11487;BME280;10510;47.942;9.442;2023-08-06T01:07:30;93988.81;;;12.27;100.00
11487;BME280;10510;47.942;9.442;2023-08-06T01:14:37;93982.63;;;12.15;100.00
11487;BME280;10510;47.942;9.442;2023-08-06T01:16:43;93988.88;;;12.14;100.00
11487;BME280;10510;47.942;9.442;2023-08-06T01:18:43;93978.81;;;12.11;100.00
11487;BME280;10510;47.942;9.442;2023-08-06T01:20:46;93984.06;;;12.11;100.00
11487;BME280;10510;47.942;9.442;2023-08-06T01:22:46;93981.84;;;12.08;100.00
11487;BME280;10510;47.942;9.442;2023-08-06T01:24:49;93985.50;;;12.07;100.00
11487;BME280;10510;47.942;9.442;2023-08-06T01:27:01;93987.72;;;12.03;100.00
11487;BME280;10510;47.942;9.442;2023-08-06T01:29:10;93987.13;;;12.01;100.00
11487;BME280;10510;47.942;9.442;2023-08-06T01:31:16;93983.91;;;11.99;100.00
11487;BME280;10510;47.942;9.442;2023-08-06T01:33:21;93984.50;;;12.01;100.00
11487;BME280;10510;47.942;9.442;2023-08-06T01:35:22;93977.84;;;11.99;100.00
11487;BME280;10510;47.942;9.442;2023-08-06T01:37:23;93969.41;;;11.97;100.00
11487;BME280;10510;47.942;9.442;2023-08-06T01:39:24;93977.25;;;11.97;100.00
11487;BME280;10510;47.942;9.442;2023-08-06T01:41:24;93967.00;;;11.95;100.00
11487;BME280;10510;47.942;9.442;2023-08-06T01:43:24;93966.41;;;11.93;100.00
11487;BME280;10510;47.942;9.442;2023-08-06T01:45:24;93966.63;;;11.92;100.00
11487;BME280;10510;47.942;9.442;2023-08-06T01:47:25;93964.19;;;11.90;100.00
11487;BME280;10510;47.942;9.442;2023-08-06T01:49:25;93960.78;;;11.90;100.00
11487;BME280;10510;47.942;9.442;2023-08-06T01:51:25;93966.19;;;11.88;100.00
11487;BME280;10510;47.942;9.442;2023-08-06T01:53:26;93969.03;;;11.87;100.00
11487;BME280;10510;47.942;9.442;2023-08-06T01:55:26;93960.56;;;11.85;100.00
11487;BME280;10510;47.942;9.442;2023-08-06T01:57:26;93953.13;;;11.81;100.00
11487;BME280;10510;47.942;9.442;2023-08-06T01:59:26;93957.78;;;11.79;100.00
11487;BME280;10510;47.942;9.442;2023-08-06T02:01:27;93960.59;;;11.78;100.00
11487;BME280;10510;47.942;9.442;2023-08-06T02:03:27;93953.53;;;11.78;100.00
11487;BME280;10510;47.942;9.442;2023-08-06T02:05:27;93949.50;;;11.76;100.00
11487;BME280;10510;47.942;9.442;2023-08-06T02:07:28;93948.72;;;11.75;100.00
11487;BME280;10510;47.942;9.442;2023-08-06T02:09:28;93951.31;;;11.75;100.00
11487;BME280;10510;47.942;9.442;2023-08-06T02:11:28;93949.72;;;11.74;100.00
11487;BME280;10510;47.942;9.442;2023-08-06T02:13:28;93938.66;;;11.72;100.00
11487;BME280;10510;47.942;9.442;2023-08-06T02:15:29;93945.09;;;11.70;100.00
11487;BME280;10510;47.942;9.442;2023-08-06T02:17:29;93940.09;;;11.68;100.00
11487;BME280;10510;47.942;9.442;2023-08-06T02:19:29;93933.22;;;11.67;100.00
11487;BME280;10510;47.942;9.442;2023-08-06T02:21:30;93936.88;;;11.66;100.00
11487;BME280;10510;47.942;9.442;2023-08-06T02:23:30;93937.66;;;11.67;100.00
11487;BME280;10510;47.942;9.442;2023-08-06T02:25:30;93939.47;;;11.66;100.00
11487;BME280;10510;47.942;9.442;2023-08-06T02:27:30;93936.88;;;11.66;100.00
11487;BME280;10510;47.942;9.442;2023-08-06T02:29:31;93946.31;;;11.67;100.00
11487;BME280;10510;47.942;9.442;2023-08-06T02:31:31;93938.47;;;11.67;100.00
11487;BME280;10510;47.942;9.442;2023-08-06T02:33:31;93940.09;;;11.68;100.00
11487;BME280;10510;47.942;9.442;2023-08-06T02:35:31;93932.00;;;11.70;100.00
11487;BME280;10510;47.942;9.442;2023-08-06T02:37:35;93932.81;;;11.70;100.00
11487;BME280;10510;47.942;9.442;2023-08-06T02:39:35;93931.22;;;11.69;100.00
11487;BME280;10510;47.942;9.442;2023-08-06T02:41:36;93925.97;;;11.69;100.00
11487;BME280;10510;47.942;9.442;2023-08-06T02:43:36;93924.38;;;11.68;100.00
11487;BME280;10510;47.942;9.442;2023-08-06T02:45:37;93917.75;;;11.66;100.00
11487;BME280;10510;47.942;9.442;2023-08-06T02:47:37;93919.75;;;11.64;100.00
11487;BME280;10510;47.942;9.442;2023-08-06T02:49:37;93918.34;;;11.61;100.00
11487;BME280;10510;47.942;9.442;2023-08-06T02:51:37;93915.97;;;11.59;100.00
11487;BME280;10510;47.942;9.442;2023-08-06T02:53:38;93912.31;;;11.60;100.00
11487;BME280;10510;47.942;9.442;2023-08-06T02:55:45;93911.31;;;11.62;100.00
11487;BME280;10510;47.942;9.442;2023-08-06T02:57:46;93910.31;;;11.63;100.00
11487;BME280;10510;47.942;9.442;2023-08-06T02:59:46;93909.91;;;11.66;100.00
11487;BME280;10510;47.942;9.442;2023-08-06T03:01:47;93904.25;;;11.69;100.00
11487;BME280;10510;47.942;9.442;2023-08-06T03:03:47;93901.41;;;11.70;100.00
11487;BME280;10510;47.942;9.442;2023-08-06T03:05:54;93905.03;;;11.69;100.00
11487;BME280;10510;47.942;9.442;2023-08-06T03:07:54;93905.03;;;11.69;100.00
11487;BME280;10510;47.942;9.442;2023-08-06T03:09:54;93906.47;;;11.65;100.00
11487;BME280;10510;47.942;9.442;2023-08-06T03:11:54;93903.88;;;11.65;100.00
11487;BME280;10510;47.942;9.442;2023-08-06T03:13:55;93916.13;;;11.65;100.00
11487;BME280;10510;47.942;9.442;2023-08-06T03:15:56;93902.84;;;11.66;100.00
11487;BME280;10510;47.942;9.442;2023-08-06T03:17:56;93904.25;;;11.69;100.00
11487;BME280;10510;47.942;9.442;2023-08-06T03:19:57;93895.19;;;11.71;100.00
11487;BME280;10510;47.942;9.442;2023-08-06T03:21:57;93914.91;;;11.74;100.00
11487;BME280;10510;47.942;9.442;2023-08-06T03:23:57;93900.56;;;11.76;100.00
11487;BME280;10510;47.942;9.442;2023-08-06T03:26:02;93907.44;;;11.77;100.00
11487;BME280;10510;47.942;9.442;2023-08-06T03:28:02;93897.75;;;11.78;100.00
11487;BME280;10510;47.942;9.442;2023-08-06T03:30:03;93898.13;;;11.81;100.00
11487;BME280;10510;47.942;9.442;2023-08-06T03:32:04;93899.53;;;11.84;100.00
11487;BME280;10510;47.942;9.442;2023-08-06T03:34:04;93888.09;;;11.85;100.00
11487;BME280;10510;47.942;9.442;2023-08-06T03:36:04;93894.72;;;11.88;100.00
11487;BME280;10510;47.942;9.442;2023-08-06T03:38:04;93899.94;;;11.88;100.00
11487;BME280;10510;47.942;9.442;2023-08-06T03:40:05;93897.34;;;11.88;100.00
11487;BME280;10510;47.942;9.442;2023-08-06T03:42:06;93897.94;;;11.90;100.00
11487;BME280;10510;47.942;9.442;2023-08-06T03:44:06;93905.00;;;11.89;100.00
11487;BME280;10510;47.942;9.442;2023-08-06T03:46:06;93901.78;;;11.87;100.00
11487;BME280;10510;47.942;9.442;2023-08-06T03:48:07;93900.97;;;11.87;100.00
11487;BME280;10510;47.942;9.442;2023-08-06T03:50:08;93896.75;;;11.86;100.00
11487;BME280;10510;47.942;9.442;2023-08-06T03:52:08;93898.13;;;11.88;100.00
11487;BME280;10510;47.942;9.442;2023-08-06T03:54:08;93899.34;;;11.92;100.00
11487;BME280;10510;47.942;9.442;2023-08-06T03:56:09;93897.31;;;11.94;100.00
11487;BME280;10510;47.942;9.442;2023-08-06T03:58:10;93898.50;;;11.98;100.00
11487;BME280;10510;47.942;9.442;2023-08-06T04:00:10;93894.66;;;12.01;100.00
11487;BME280;10510;47.942;9.442;2023-08-06T04:02:11;93898.47;;;12.05;100.00
11487;BME280;10510;47.942;9.442;2023-08-06T04:04:11;93897.25;;;12.08;100.00
11487;BME280;10510;47.942;9.442;2023-08-06T04:06:11;93897.84;;;12.10;100.00
11487;BME280;10510;47.942;9.442;2023-08-06T04:08:12;93897.63;;;12.11;100.00
11487;BME280;10510;47.942;9.442;2023-08-06T04:10:12;93898.81;;;12.15;100.00
11487;BME280;10510;47.942;9.442;2023-08-06T04:12:12;93895.97;;;12.17;100.00
11487;BME280;10510;47.942;9.442;2023-08-06T04:14:12;93900.78;;;12.20;100.00
11487;BME280;10510;47.942;9.442;2023-08-06T04:16:13;93899.78;;;12.21;100.00
11487;BME280;10510;47.942;9.442;2023-08-06T04:18:14;93903.00;;;12.23;100.00
11487;BME280;10510;47.942;9.442;2023-08-06T04:20:15;93894.13;;;12.24;100.00
11487;BME280;10510;47.942;9.442;2023-08-06T04:22:15;93895.94;;;12.23;100.00
11487;BME280;10510;47.942;9.442;2023-08-06T04:24:16;93892.31;;;12.24;100.00
11487;BME280;10510;47.942;9.442;2023-08-06T04:26:16;93896.53;;;12.25;100.00
11487;BME280;10510;47.942;9.442;2023-08-06T04:28:16;93906.00;;;12.26;100.00
11487;BME280;10510;47.942;9.442;2023-08-06T04:30:16;93891.50;;;12.24;100.00
11487;BME280;10510;47.942;9.442;2023-08-06T04:32:17;93898.78;;;12.22;100.00
11487;BME280;10510;47.942;9.442;2023-08-06T04:34:19;93894.75;;;12.19;100.00
11487;BME280;10510;47.942;9.442;2023-08-06T04:36:19;93894.38;;;12.16;100.00
11487;BME280;10510;47.942;9.442;2023-08-06T04:38:19;93898.81;;;12.15;100.00
11487;BME280;10510;47.942;9.442;2023-08-06T04:40:20;93902.44;;;12.14;100.00
11487;BME280;10510;47.942;9.442;2023-08-06T04:42:20;93895.78;;;12.12;100.00
11487;BME280;10510;47.942;9.442;2023-08-06T04:44:20;93889.19;;;12.09;100.00
11487;BME280;10510;47.942;9.442;2023-08-06T04:46:20;93896.44;;;12.07;100.00
11487;BME280;10510;47.942;9.442;2023-08-06T04:48:21;93894.84;;;12.06;100.00
11487;BME280;10510;47.942;9.442;2023-08-06T04:50:22;93902.09;;;12.04;100.00
11487;BME280;10510;47.942;9.442;2023-08-06T04:52:22;93896.88;;;12.04;100.00
11487;BME280;10510;47.942;9.442;2023-08-06T04:54:22;93905.75;;;12.03;100.00
11487;BME280;10510;47.942;9.442;2023-08-06T04:56:23;93905.94;;;12.01;100.00
11487;BME280;10510;47.942;9.442;2023-08-06T04:58:23;93904.34;;;12.00;100.00
11487;BME280;10510;47.942;9.442;2023-08-06T05:00:23;93897.72;;;11.98;100.00
11487;BME280;10510;47.942;9.442;2023-08-06T05:02:24;93903.38;;;11.95;100.00
11487;BME280;10510;47.942;9.442;2023-08-06T05:04:24;93906.97;;;11.94;100.00
11487;BME280;10510;47.942;9.442;2023-08-06T05:06:24;93899.94;;;11.94;100.00
11487;BME280;10510;47.942;9.442;2023-08-06T05:08:24;93906.16;;;11.93;100.00
11487;BME280;10510;47.942;9.442;2023-08-06T05:10:25;93898.31;;;11.93;100.00
11487;BME280;10510;47.942;9.442;2023-08-06T05:12:26;93902.56;;;11.94;100.00
11487;BME280;10510;47.942;9.442;2023-08-06T05:14:26;93889.66;;;11.93;100.00
11487;BME280;10510;47.942;9.442;2023-08-06T05:16:26;93898.53;;;11.92;100.00
11487;BME280;10510;47.942;9.442;2023-08-06T05:18:27;93901.16;;;11.92;100.00
11487;BME280;10510;47.942;9.442;2023-08-06T05:20:27;93898.13;;;11.95;100.00
11487;BME280;10510;47.942;9.442;2023-08-06T05:22:27;93899.53;;;11.97;100.00
11487;BME280;10510;47.942;9.442;2023-08-06T05:24:28;93896.69;;;11.99;100.00
11487;BME280;10510;47.942;9.442;2023-08-06T05:26:28;93901.72;;;12.00;100.00
11487;BME280;10510;47.942;9.442;2023-08-06T05:28:28;93904.91;;;12.02;100.00
11487;BME280;10510;47.942;9.442;2023-08-06T05:30:28;93905.31;;;12.06;100.00
11487;BME280;10510;47.942;9.442;2023-08-06T05:32:29;93907.09;;;12.12;100.00
11487;BME280;10510;47.942;9.442;2023-08-06T05:34:29;93905.47;;;12.18;100.00
11487;BME280;10510;47.942;9.442;2023-08-06T05:36:29;93904.84;;;12.16;100.00
11487;BME280;10510;47.942;9.442;2023-08-06T05:38:30;93911.31;;;12.13;100.00
11487;BME280;10510;47.942;9.442;2023-08-06T05:40:33;93912.34;;;12.12;100.00
11487;BME280;10510;47.942;9.442;2023-08-06T05:42:33;93913.94;;;12.13;100.00
11487;BME280;10510;47.942;9.442;2023-08-06T05:44:33;93909.28;;;12.15;100.00
11487;BME280;10510;47.942;9.442;2023-08-06T05:46:34;93907.84;;;12.19;100.00
11487;BME280;10510;47.942;9.442;2023-08-06T05:48:34;93918.34;;;12.19;100.00
11487;BME280;10510;47.942;9.442;2023-08-06T05:50:34;93914.50;;;12.22;100.00
11487;BME280;10510;47.942;9.442;2023-08-06T05:52:35;93918.84;;;12.35;100.00
11487;BME280;10510;47.942;9.442;2023-08-06T05:54:35;93919.19;;;12.45;100.00
11487;BME280;10510;47.942;9.442;2023-08-06T05:56:35;93910.22;;;12.59;100.00
11487;BME280;10510;47.942;9.442;2023-08-06T05:58:35;93912.97;;;12.71;100.00
11487;BME280;10510;47.942;9.442;2023-08-06T06:00:36;93916.69;;;12.82;100.00
11487;BME280;10510;47.942;9.442;2023-08-06T06:02:36;93913.81;;;12.90;100.00
11487;BME280;10510;47.942;9.442;2023-08-06T06:04:37;93921.47;;;12.91;100.00
11487;BME280;10510;47.942;9.442;2023-08-06T06:06:37;93919.16;;;13.02;100.00
11487;BME280;10510;47.942;9.442;2023-08-06T06:08:37;93912.16;;;13.94;100.00
11487;BME280;10510;47.942;9.442;2023-08-06T06:10:37;93916.97;;;14.58;100.00
11487;BME280;10510;47.942;9.442;2023-08-06T06:12:38;93926.69;;;14.27;100.00
11487;BME280;10510;47.942;9.442;2023-08-06T06:14:39;93932.25;;;14.19;100.00
11487;BME280;10510;47.942;9.442;2023-08-06T06:16:39;93933.25;;;13.51;100.00
11487;BME280;10510;47.942;9.442;2023-08-06T06:18:39;93938.34;;;13.21;100.00
11487;BME280;10510;47.942;9.442;2023-08-06T06:20:39;93932.69;;;12.99;100.00
11487;BME280;10510;47.942;9.442;2023-08-06T06:22:40;93939.44;;;12.88;100.00
11487;BME280;10510;47.942;9.442;2023-08-06T06:24:40;93936.03;;;13.12;100.00
11487;BME280;10510;47.942;9.442;2023-08-06T06:26:40;93928.56;;;15.98;100.00
11487;BME280;10510;47.942;9.442;2023-08-06T06:28:40;93928.88;;;18.15;100.00
11487;BME280;10510;47.942;9.442;2023-08-06T06:30:41;93933.03;;;18.60;100.00
11487;BME280;10510;47.942;9.442;2023-08-06T06:32:42;93938.53;;;19.88;100.00
11487;BME280;10510;47.942;9.442;2023-08-06T06:34:42;93930.69;;;17.54;100.00
11487;BME280;10510;47.942;9.442;2023-08-06T06:36:42;93919.13;;;16.13;100.00
11487;BME280;10510;47.942;9.442;2023-08-06T06:38:42;93924.59;;;14.89;100.00
11487;BME280;10510;47.942;9.442;2023-08-06T06:40:43;93926.41;;;14.17;100.00
11487;BME280;10510;47.942;9.442;2023-08-06T06:42:43;93930.44;;;13.71;100.00
11487;BME280;10510;47.942;9.442;2023-08-06T06:44:43;93940.09;;;13.52;100.00
11487;BME280;10510;47.942;9.442;2023-08-06T06:46:43;93949.72;;;13.39;100.00
11487;BME280;10510;47.942;9.442;2023-08-06T06:48:44;93949.19;;;13.31;100.00
11487;BME280;10510;47.942;9.442;2023-08-06T06:50:47;93952.84;;;13.30;100.00
11487;BME280;10510;47.942;9.442;2023-08-06T06:52:47;93957.44;;;13.09;100.00
11487;BME280;10510;47.942;9.442;2023-08-06T06:54:47;93959.78;;;12.92;100.00
11487;BME280;10510;47.942;9.442;2023-08-06T06:56:48;93958.50;;;12.77;100.00
11487;BME280;10510;47.942;9.442;2023-08-06T06:58:48;93954.09;;;12.70;100.00
11487;BME280;10510;47.942;9.442;2023-08-06T07:00:48;93960.16;;;12.64;100.00
11487;BME280;10510;47.942;9.442;2023-08-06T07:02:49;93968.47;;;12.61;100.00
11487;BME280;10510;47.942;9.442;2023-08-06T07:04:50;93955.34;;;12.61;100.00
11487;BME280;10510;47.942;9.442;2023-08-06T07:06:50;93963.22;;;12.61;100.00
11487;BME280;10510;47.942;9.442;2023-08-06T07:08:52;93957.84;;;12.56;100.00
11487;BME280;10510;47.942;9.442;2023-08-06T07:11:00;93964.06;;;12.55;100.00
11487;BME280;10510;47.942;9.442;2023-08-06T07:13:01;93964.50;;;12.52;100.00
11487;BME280;10510;47.942;9.442;2023-08-06T07:15:03;93968.56;;;12.48;100.00
11487;BME280;10510;47.942;9.442;2023-08-06T07:17:04;93963.19;;;12.36;100.00
11487;BME280;10510;47.942;9.442;2023-08-06T07:19:04;93967.63;;;12.29;100.00
11487;BME280;10510;47.942;9.442;2023-08-06T07:21:05;93965.28;;;12.21;100.00
11487;BME280;10510;47.942;9.442;2023-08-06T07:23:05;93969.34;;;12.10;100.00
11487;BME280;10510;47.942;9.442;2023-08-06T07:25:06;93974.81;;;12.02;100.00
11487;BME280;10510;47.942;9.442;2023-08-06T07:27:06;93971.22;;;11.96;100.00
11487;BME280;10510;47.942;9.442;2023-08-06T07:29:07;93978.69;;;11.93;100.00
11487;BME280;10510;47.942;9.442;2023-08-06T07:31:07;93977.91;;;11.92;100.00
11487;BME280;10510;47.942;9.442;2023-08-06T07:33:07;93988.78;;;11.89;100.00
11487;BME280;10510;47.942;9.442;2023-08-06T07:35:08;93988.41;;;11.86;100.00
11487;BME280;10510;47.942;9.442;2023-08-06T07:37:12;93990.00;;;11.80;100.00
11487;BME280;10510;47.942;9.442;2023-08-06T07:39:12;93993.59;;;11.79;100.00
11487;BME280;10510;47.942;9.442;2023-08-06T07:41:13;93992.78;;;11.78;100.00
11487;BME280;10510;47.942;9.442;2023-08-06T07:43:13;93991.81;;;11.79;100.00
11487;BME280;10510;47.942;9.442;2023-08-06T07:45:14;93988.78;;;11.82;100.00
11487;BME280;10510;47.942;9.442;2023-08-06T07:47:14;94003.69;;;11.89;100.00
11487;BME280;10510;47.942;9.442;2023-08-06T07:49:14;93992.38;;;11.88;100.00
11487;BME280;10510;47.942;9.442;2023-08-06T07:51:15;94001.88;;;11.82;100.00
11487;BME280;10510;47.942;9.442;2023-08-06T07:53:15;93997.44;;;11.76;100.00
11487;BME280;10510;47.942;9.442;2023-08-06T07:55:15;94004.69;;;11.74;100.00
11487;BME280;10510;47.942;9.442;2023-08-06T07:57:16;93999.66;;;11.79;100.00
11487;BME280;10510;47.942;9.442;2023-08-06T07:59:16;93996.22;;;11.92;100.00
11487;BME280;10510;47.942;9.442;2023-08-06T08:01:17;94009.47;;;12.04;100.00
11487;BME280;10510;47.942;9.442;2023-08-06T08:03:17;94000.75;;;12.17;100.00
11487;BME280;10510;47.942;9.442;2023-08-06T08:05:17;94003.75;;;12.20;100.00
11487;BME280;10510;47.942;9.442;2023-08-06T08:07:18;94008.75;;;12.28;100.00
11487;BME280;10510;47.942;9.442;2023-08-06T08:09:18;94014.50;;;12.50;100.00
11487;BME280;10510;47.942;9.442;2023-08-06T08:11:20;94013.19;;;12.66;100.00
11487;BME280;10510;47.942;9.442;2023-08-06T08:13:20;94001.69;;;12.67;100.00
11487;BME280;10510;47.942;9.442;2023-08-06T08:15:20;94005.09;;;12.75;100.00
11487;BME280;10510;47.942;9.442;2023-08-06T08:17:21;94002.97;;;12.90;100.00
11487;BME280;10510;47.942;9.442;2023-08-06T08:19:21;93997.53;;;12.91;100.00
11487;BME280;10510;47.942;9.442;2023-08-06T08:21:21;94006.00;;;12.87;100.00
11487;BME280;10510;47.942;9.442;2023-08-06T08:23:24;93997.09;;;12.63;100.00
11487;BME280;10510;47.942;9.442;2023-08-06T08:25:24;93994.38;;;12.44;100.00
11487;BME280;10510;47.942;9.442;2023-08-06T08:27:24;93998.28;;;12.28;100.00
11487;BME280;10510;47.942;9.442;2023-08-06T08:29:26;93997.75;;;12.13;100.00
11487;BME280;10510;47.942;9.442;2023-08-06T08:31:26;94009.28;;;11.99;100.00
11487;BME280;10510;47.942;9.442;2023-08-06T08:33:28;94014.13;;;11.82;100.00
11487;BME280;10510;47.942;9.442;2023-08-06T08:35:28;94012.56;;;11.74;100.00
11487;BME280;10510;47.942;9.442;2023-08-06T08:37:29;94017.41;;;11.71;100.00
11487;BME280;10510;47.942;9.442;2023-08-06T08:39:29;94019.03;;;11.65;100.00
11487;BME280;10510;47.942;9.442;2023-08-06T08:41:29;94022.81;;;11.69;100.00
11487;BME280;10510;47.942;9.442;2023-08-06T08:43:31;94018.63;;;11.68;100.00
11487;BME280;10510;47.942;9.442;2023-08-06T08:45:34;94013.97;;;11.64;100.00
11487;BME280;10510;47.942;9.442;2023-08-06T08:47:35;94025.84;;;11.66;100.00
11487;BME280;10510;47.942;9.442;2023-08-06T08:49:37;94031.50;;;11.63;100.00
11487;BME280;10510;47.942;9.442;2023-08-06T08:51:37;94030.88;;;11.61;100.00
11487;BME280;10510;47.942;9.442;2023-08-06T08:53:38;94041.75;;;11.65;100.00
11487;BME280;10510;47.942;9.442;2023-08-06T08:55:40;94045.59;;;11.62;100.00
11487;BME280;10510;47.942;9.442;2023-08-06T08:57:42;94043.19;;;11.60;100.00
11487;BME280;10510;47.942;9.442;2023-08-06T08:59:42;94043.97;;;11.61;100.00
11487;BME280;10510;47.942;9.442;2023-08-06T09:01:43;94045.00;;;11.60;100.00
11487;BME280;10510;47.942;9.442;2023-08-06T09:03:46;94038.16;;;11.59;100.00
11487;BME280;10510;47.942;9.442;2023-08-06T09:05:49;94047.00;;;11.58;100.00
11487;BME280;10510;47.942;9.442;2023-08-06T09:07:52;94041.97;;;11.56;100.00
11487;BME280;10510;47.942;9.442;2023-08-06T09:09:53;94044.78;;;11.55;100.00
11487;BME280;10510;47.942;9.442;2023-08-06T09:11:55;94044.78;;;11.55;100.00
11487;BME280;10510;47.942;9.442;2023-08-06T09:14:00;94032.50;;;11.55;100.00
11487;BME280;10510;47.942;9.442;2023-08-06T09:16:03;94037.97;;;11.54;100.00
11487;BME280;10510;47.942;9.442;2023-08-06T09:18:09;94047.41;;;11.55;100.00
11487;BME280;10510;47.942;9.442;2023-08-06T09:20:13;94048.63;;;11.59;100.00
11487;BME280;10510;47.942;9.442;2023-08-06T09:22:14;94053.47;;;11.62;100.00
11487;BME280;10510;47.942;9.442;2023-08-06T09:24:14;94045.59;;;11.69;100.00
11487;BME280;10510;47.942;9.442;2023-08-06T09:26:15;94051.59;;;11.76;100.00
11487;BME280;10510;47.942;9.442;2023-08-06T09:28:15;94046.16;;;11.84;100.00
11487;BME280;10510;47.942;9.442;2023-08-06T09:30:29;94056.84;;;11.89;100.00
11487;BME280;10510;47.942;9.442;2023-08-06T09:32:45;94043.75;;;11.96;100.00
11487;BME280;10510;47.942;9.442;2023-08-06T09:34:46;94044.53;;;12.03;100.00
11487;BME280;10510;47.942;9.442;2023-08-06T09:36:48;94057.19;;;12.13;100.00
11487;BME280;10510;47.942;9.442;2023-08-06T09:38:49;94054.94;;;12.23;100.00
11487;BME280;10510;47.942;9.442;2023-08-06T09:40:49;94055.72;;;12.30;100.00
11487;BME280;10510;47.942;9.442;2023-08-06T09:42:49;94058.28;;;12.50;100.00
11487;BME280;10510;47.942;9.442;2023-08-06T09:44:50;94063.81;;;12.67;100.00
11487;BME280;10510;47.942;9.442;2023-08-06T09:46:52;94071.66;;;12.73;100.00
11487;BME280;10510;47.942;9.442;2023-08-06T09:48:52;94063.94;;;12.85;100.00
11487;BME280;10510;47.942;9.442;2023-08-06T09:50:53;94066.28;;;12.93;100.00
11487;BME280;10510;47.942;9.442;2023-08-06T09:52:55;94075.19;;;12.92;100.00
11487;BME280;10510;47.942;9.442;2023-08-06T09:54:56;94063.47;;;12.95;100.00
11487;BME280;10510;47.942;9.442;2023-08-06T09:56:57;94071.16;;;12.90;100.00
11487;BME280;10510;47.942;9.442;2023-08-06T09:58:57;94070.31;;;12.96;100.00
11487;BME280;10510;47.942;9.442;2023-08-06T10:00:59;94068.88;;;13.00;100.00
11487;BME280;10510;47.942;9.442;2023-08-06T10:03:00;94071.38;;;12.88;100.00
11487;BME280;10510;47.942;9.442;2023-08-06T10:05:01;94072.66;;;12.72;100.00
11487;BME280;10510;47.942;9.442;2023-08-06T10:07:01;94072.50;;;12.61;100.00
11487;BME280;10510;47.942;9.442;2023-08-06T10:09:05;94088.47;;;12.59;100.00
11487;BME280;10510;47.942;9.442;2023-08-06T10:11:05;94081.19;;;12.61;100.00
11487;BME280;10510;47.942;9.442;2023-08-06T10:13:07;94079.91;;;12.70;100.00
11487;BME280;10510;47.942;9.442;2023-08-06T10:15:10;94072.03;;;12.77;100.00
11487;BME280;10510;47.942;9.442;2023-08-06T10:17:12;94077.03;;;12.85;100.00
11487;BME280;10510;47.942;9.442;2023-08-06T10:19:13;94065.66;;;12.98;100.00
11487;BME280;10510;47.942;9.442;2023-08-06T10:21:16;94064.38;;;13.07;100.00
11487;BME280;10510;47.942;9.442;2023-08-06T10:23:17;94071.94;;;13.22;100.00
11487;BME280;10510;47.942;9.442;2023-08-06T10:25:23;94067.88;;;13.33;100.00
11487;BME280;10510;47.942;9.442;2023-08-06T10:27:33;94065.78;;;13.42;100.00
11487;BME280;10510;47.942;9.442;2023-08-06T10:29:37;94068.19;;;13.43;100.00
11487;BME280;10510;47.942;9.442;2023-08-06T10:31:54;94073.19;;;13.51;100.00
11487;BME280;10510;47.942;9.442;2023-08-06T10:33:55;94050.72;;;13.55;100.00
11487;BME280;10510;47.942;9.442;2023-08-06T10:36:01;94071.16;;;13.53;100.00
11487;BME280;10510;47.942;9.442;2023-08-06T10:38:08;94069.69;;;13.57;100.00